Time;durP1;ratioP1;P1;durP2;ratioP2;P2;SDS_P1;SDS_P2;PMS_P1;PMS_P2;Temp;Humidity;BMP_temperature;BMP_pressure;BME280_temperature;BME280_humidity;BME280_pressure;Samples;Min_cycle;Max_cycle;Signal;HPM_P1;HPM_P2
2022/07/03 00:02:13;;;;;;;109.57;46.13;;;;;;;;;;7327816;19;162555;-18
2022/07/03 00:04:47;;;;;;;107.05;45.83;;;;;;;;;;7331387;19;154030;-20
2022/07/03 00:07:18;;;;;;;102.07;43.50;;;;;;;;;;7331449;19;153712;-17
2022/07/03 00:09:50;;;;;;;104.00;42.97;;;;;;;;;;7323938;19;162099;-17
2022/07/03 00:12:21;;;;;;;110.70;44.78;;;;;;;;;;7327549;19;162526;-17
2022/07/03 00:14:52;;;;;;;107.05;47.83;;;;;;;;;;7327075;19;154085;-17
2022/07/03 00:17:23;;;;;;;93.05;37.75;;;;;;;;;;7327959;19;153900;-17
2022/07/03 00:19:57;;;;;;;87.35;37.97;;;;;;;;;;7324711;19;161901;-17
2022/07/03 00:22:30;;;;;;;92.57;36.80;;;;;;;;;;7324578;19;162427;-17
2022/07/03 00:25:05;;;;;;;93.53;37.63;;;;;;;;;;7327789;19;154268;-17
2022/07/03 00:27:37;;;;;;;90.72;35.90;;;;;;;;;;7327707;19;153618;-17
2022/07/03 00:30:10;;;;;;;89.33;38.27;;;;;;;;;;7327488;19;162068;-17
2022/07/03 00:32:43;;;;;;;81.28;36.17;;;;;;;;;;7327492;19;162542;-17
2022/07/03 00:35:19;;;;;;;95.15;37.75;;;;;;;;;;7324827;19;154057;-18
2022/07/03 00:37:51;;;;;;;82.78;36.63;;;;;;;;;;7327438;19;153640;-17
2022/07/03 00:40:23;;;;;;;84.85;35.33;;;;;;;;;;7326986;19;161611;-17
2022/07/03 00:42:54;;;;;;;89.10;36.55;;;;;;;;;;7323588;19;162683;-17
2022/07/03 00:45:28;;;;;;;91.63;36.25;;;;;;;;;;7327171;19;154060;-17
2022/07/03 00:48:01;;;;;;;90.63;37.58;;;;;;;;;;7334390;19;153648;-17
2022/07/03 00:50:38;;;;;;;89.38;37.10;;;;;;;;;;7337438;19;162148;-17
2022/07/03 00:53:13;;;;;;;77.18;33.55;;;;;;;;;;7337479;19;162503;-17
2022/07/03 00:55:49;;;;;;;82.22;37.45;;;;;;;;;;7336837;19;154094;-17
2022/07/03 00:58:22;;;;;;;85.55;36.20;;;;;;;;;;7336312;19;153744;-17
2022/07/03 01:00:57;;;;;;;84.28;34.13;;;;;;;;;;7337427;19;161861;-15
2022/07/03 01:03:30;;;;;;;87.75;38.45;;;;;;;;;;7334651;19;162588;-16
2022/07/03 01:06:13;;;;;;;79.82;35.33;;;;;;;;;;7336580;19;154111;-15
2022/07/03 01:08:48;;;;;;;80.50;34.60;;;;;;;;;;7337467;19;153413;-15
2022/07/03 01:11:24;;;;;;;74.78;34.97;;;;;;;;;;7336408;19;161850;-15
2022/07/03 01:14:12;;;;;;;81.50;36.88;;;;;;;;;;7336987;19;162387;-15
2022/07/03 01:16:50;;;;;;;80.53;36.05;;;;;;;;;;7336866;19;154199;-15
2022/07/03 01:19:41;;;;;;;80.10;35.75;;;;;;;;;;7337770;19;153745;-15
2022/07/03 01:22:35;;;;;;;79.30;34.47;;;;;;;;;;7335134;19;161847;-15
2022/07/03 01:25:24;;;;;;;80.35;36.30;;;;;;;;;;7335726;19;162518;-17
2022/07/03 01:28:15;;;;;;;78.90;34.42;;;;;;;;;;7336654;19;154129;-16
2022/07/03 01:30:50;;;;;;;82.28;34.78;;;;;;;;;;7336000;19;153864;-15
2022/07/03 01:33:24;;;;;;;79.20;33.63;;;;;;;;;;7335456;19;162187;-16
2022/07/03 01:36:05;;;;;;;75.53;35.63;;;;;;;;;;7335828;19;162652;-15
2022/07/03 01:38:40;;;;;;;81.18;35.33;;;;;;;;;;7334847;19;154011;-15
2022/07/03 01:41:13;;;;;;;76.85;33.03;;;;;;;;;;7336221;19;153618;-15
2022/07/03 01:44:01;;;;;;;69.53;31.00;;;;;;;;;;7334434;19;134002;-15
2022/07/03 01:46:35;;;;;;;68.05;31.67;;;;;;;;;;7335864;19;162565;-15
2022/07/03 01:49:09;;;;;;;73.15;30.88;;;;;;;;;;7335380;19;154180;-15
2022/07/03 01:51:42;;;;;;;64.15;31.67;;;;;;;;;;7336836;19;153852;-15
2022/07/03 01:54:13;;;;;;;70.88;32.70;;;;;;;;;;7335851;19;161904;-15
2022/07/03 01:56:46;;;;;;;69.90;31.23;;;;;;;;;;7335423;19;162474;-16
2022/07/03 01:59:20;;;;;;;65.63;30.45;;;;;;;;;;7334072;19;154113;-15
2022/07/03 02:02:00;;;;;;;63.60;30.25;;;;;;;;;;7334918;19;153573;-15
2022/07/03 02:04:37;;;;;;;69.00;32.35;;;;;;;;;;7334553;19;161731;-15
2022/07/03 02:07:19;;;;;;;74.00;31.83;;;;;;;;;;7334972;19;162576;-15
2022/07/03 02:09:57;;;;;;;71.50;31.42;;;;;;;;;;7334678;19;153861;-15
2022/07/03 02:12:35;;;;;;;69.03;29.13;;;;;;;;;;7334998;19;153605;-15
2022/07/03 02:15:12;;;;;;;63.92;30.60;;;;;;;;;;7334695;19;161936;-15
2022/07/03 02:17:48;;;;;;;62.63;28.58;;;;;;;;;;7335061;19;162333;-16
2022/07/03 02:20:20;;;;;;;65.13;30.38;;;;;;;;;;7332972;19;154162;-16
2022/07/03 02:22:59;;;;;;;64.27;29.67;;;;;;;;;;7334171;19;153592;-16
2022/07/03 02:25:37;;;;;;;67.70;29.90;;;;;;;;;;7334290;19;161853;-16
2022/07/03 02:28:24;;;;;;;63.00;27.83;;;;;;;;;;7334872;19;162357;-15
2022/07/03 02:31:02;;;;;;;64.75;29.85;;;;;;;;;;7335024;19;154247;-17
2022/07/03 02:33:34;;;;;;;59.95;29.60;;;;;;;;;;7334016;19;153627;-16
2022/07/03 02:36:08;;;;;;;59.78;27.35;;;;;;;;;;7334028;19;162082;-16
2022/07/03 02:38:39;;;;;;;57.22;27.98;;;;;;;;;;7333943;19;162523;-16
2022/07/03 02:41:15;;;;;;;60.80;27.48;;;;;;;;;;7333899;19;154395;-16
2022/07/03 02:43:53;;;;;;;61.05;28.10;;;;;;;;;;7331885;19;154021;-16
2022/07/03 02:46:51;;;;;;;58.63;26.27;;;;;;;;;;7333740;19;161896;-16
2022/07/03 02:49:36;;;;;;;53.72;27.55;;;;;;;;;;7332824;19;162764;-16
2022/07/03 02:52:16;;;;;;;61.63;28.85;;;;;;;;;;7332973;19;153962;-15
2022/07/03 02:54:49;;;;;;;64.13;27.65;;;;;;;;;;7333227;19;153811;-16
2022/07/03 02:57:22;;;;;;;;;;;;;;;;;;7333661;19;162086;-16
2022/07/03 02:59:57;;;;;;;54.63;25.60;;;;;;;;;;7333497;19;162398;-16
2022/07/03 03:02:58;;;;;;;52.50;24.83;;;;;;;;;;7333330;19;154185;-16
2022/07/03 03:05:33;;;;;;;56.80;25.60;;;;;;;;;;7333594;19;153611;-16
2022/07/03 03:08:19;;;;;;;57.17;26.48;;;;;;;;;;7332616;19;161647;-16
2022/07/03 03:10:51;;;;;;;52.42;26.20;;;;;;;;;;7332066;19;162359;-16
2022/07/03 03:13:24;;;;;;;54.93;26.77;;;;;;;;;;7333498;19;154045;-16
2022/07/03 03:16:01;;;;;;;52.70;24.95;;;;;;;;;;7333390;19;153795;-16
2022/07/03 03:18:39;;;;;;;52.42;24.98;;;;;;;;;;7332997;19;162033;-16
2022/07/03 03:21:13;;;;;;;54.38;26.52;;;;;;;;;;7333049;19;162563;-16
2022/07/03 03:23:50;;;;;;;58.08;26.02;;;;;;;;;;7331472;19;154064;-16
2022/07/03 03:26:23;;;;;;;47.80;24.13;;;;;;;;;;7333354;19;153800;-16
2022/07/03 03:28:54;;;;;;;53.08;24.58;;;;;;;;;;7332350;19;162366;-16
2022/07/03 03:31:25;;;;;;;52.50;24.42;;;;;;;;;;7331991;19;162248;-16
2022/07/03 03:34:01;;;;;;;48.10;24.05;;;;;;;;;;7331662;19;154132;-16
2022/07/03 03:36:32;;;;;;;51.45;24.88;;;;;;;;;;7332056;19;153653;-16
2022/07/03 03:39:03;;;;;;;50.78;24.05;;;;;;;;;;7332653;19;161953;-16
2022/07/03 03:41:36;;;;;;;51.40;23.42;;;;;;;;;;7331833;19;162364;-16
2022/07/03 03:44:07;;;;;;;;;;;;;;;;;;7330925;19;154211;-16
2022/07/03 03:46:39;;;;;;;48.75;22.95;;;;;;;;;;7333089;19;153403;-16
2022/07/03 03:49:14;;;;;;;51.15;24.02;;;;;;;;;;7330214;19;161927;-16
2022/07/03 03:51:52;;;;;;;51.88;24.15;;;;;;;;;;7332022;19;162621;-18
2022/07/03 03:54:27;;;;;;;50.65;25.13;;;;;;;;;;7330532;19;154194;-16
2022/07/03 03:56:59;;;;;;;45.75;23.90;;;;;;;;;;7331667;19;153655;-16
2022/07/03 03:59:31;;;;;;;50.10;22.67;;;;;;;;;;7331479;19;161773;-16
2022/07/03 04:02:02;;;;;;;46.90;22.48;;;;;;;;;;7331691;19;162331;-15
2022/07/03 04:04:36;;;;;;;43.58;21.95;;;;;;;;;;7330372;19;154066;-16
2022/07/03 04:07:08;;;;;;;45.33;21.45;;;;;;;;;;7331391;19;153300;-16
2022/07/03 04:09:39;;;;;;;46.25;23.33;;;;;;;;;;7332592;19;161792;-15
2022/07/03 04:12:12;;;;;;;46.53;22.70;;;;;;;;;;7330237;19;162669;-17
2022/07/03 04:14:44;;;;;;;43.50;21.20;;;;;;;;;;7330837;19;154462;-16
2022/07/03 04:17:15;;;;;;;45.65;23.45;;;;;;;;;;7331590;19;153598;-16
2022/07/03 04:19:49;;;;;;;48.60;22.80;;;;;;;;;;7329892;19;161925;-16
2022/07/03 04:22:20;;;;;;;47.75;22.27;;;;;;;;;;7332492;19;162382;-16
2022/07/03 04:24:52;;;;;;;44.70;22.00;;;;;;;;;;7336810;19;154173;-16
2022/07/03 04:27:24;;;;;;;43.63;21.00;;;;;;;;;;7338349;19;156085;-16
2022/07/03 04:30:09;;;;;;;43.85;22.08;;;;;;;;;;7336436;19;161822;-15
2022/07/03 04:32:41;;;;;;;41.78;19.95;;;;;;;;;;7337996;19;162442;-16
2022/07/03 04:35:14;;;;;;;43.70;20.85;;;;;;;;;;7335509;19;154074;-15
2022/07/03 04:37:46;;;;;;;39.38;20.73;;;;;;;;;;7337653;19;153806;-16
2022/07/03 04:40:18;;;;;;;40.83;20.10;;;;;;;;;;7337264;19;162038;-15
2022/07/03 04:42:49;;;;;;;40.65;20.42;;;;;;;;;;7337249;19;162448;-16
2022/07/03 04:45:21;;;;;;;40.88;21.10;;;;;;;;;;7336564;19;154093;-16
2022/07/03 04:47:52;;;;;;;43.55;20.48;;;;;;;;;;7337585;19;153573;-16
2022/07/03 04:50:26;;;;;;;38.83;18.85;;;;;;;;;;7337491;19;161816;-16
2022/07/03 04:52:58;;;;;;;41.60;21.40;;;;;;;;;;7336528;19;162411;-16
2022/07/03 04:55:30;;;;;;;39.08;20.02;;;;;;;;;;7337464;19;154156;-16
2022/07/03 04:58:01;;;;;;;45.80;20.02;;;;;;;;;;7336883;19;153293;-16
2022/07/03 05:00:32;;;;;;;39.70;18.70;;;;;;;;;;7336428;19;162078;-15
2022/07/03 05:03:04;;;;;;;41.38;21.38;;;;;;;;;;7336286;19;162582;-16
2022/07/03 05:05:38;;;;;;;37.97;18.23;;;;;;;;;;7335816;19;154244;-16
2022/07/03 05:08:10;;;;;;;42.00;19.70;;;;;;;;;;7336935;19;153813;-15
2022/07/03 05:10:41;;;;;;;38.13;19.48;;;;;;;;;;7336580;19;161810;-15
2022/07/03 05:13:12;;;;;;;38.67;17.52;;;;;;;;;;7336431;19;162465;-15
2022/07/03 05:15:44;;;;;;;42.15;19.13;;;;;;;;;;7337321;19;153975;-16
2022/07/03 05:18:15;;;;;;;35.60;18.63;;;;;;;;;;7336728;19;153727;-16
2022/07/03 05:20:52;;;;;;;34.10;18.75;;;;;;;;;;7336370;19;161813;-16
2022/07/03 05:23:23;;;;;;;39.28;19.10;;;;;;;;;;7335851;19;162330;-15
2022/07/03 05:25:55;;;;;;;36.95;18.45;;;;;;;;;;7335338;19;153755;-15
2022/07/03 05:28:26;;;;;;;34.53;19.00;;;;;;;;;;7335497;19;153603;-16
2022/07/03 05:30:59;;;;;;;36.25;18.15;;;;;;;;;;7335085;19;162035;-16
2022/07/03 05:33:32;;;;;;;42.33;18.40;;;;;;;;;;7331960;19;162495;-16
2022/07/03 05:36:08;;;;;;;36.40;17.77;;;;;;;;;;7334602;19;154632;-16
2022/07/03 05:41:27;;;;;;;37.08;18.63;;;;;;;;;;7334985;19;161694;-16
2022/07/03 05:44:06;;;;;;;31.48;17.40;;;;;;;;;;7335246;19;162592;-16
2022/07/03 05:46:45;;;;;;;32.47;17.77;;;;;;;;;;7332598;19;154436;-16
2022/07/03 05:49:21;;;;;;;34.88;16.90;;;;;;;;;;7335382;19;153726;-16
2022/07/03 05:52:01;;;;;;;37.60;17.65;;;;;;;;;;7334961;19;162234;-16
2022/07/03 05:54:37;;;;;;;32.35;15.90;;;;;;;;;;7335920;19;162771;-16
2022/07/03 05:57:13;;;;;;;30.58;16.73;;;;;;;;;;7334670;19;154261;-16
2022/07/03 05:59:45;;;;;;;34.33;17.80;;;;;;;;;;7333331;19;153602;-16
2022/07/03 06:02:17;;;;;;;36.95;16.77;;;;;;;;;;7335107;19;162052;-16
2022/07/03 06:04:48;;;;;;;32.88;17.35;;;;;;;;;;7334752;19;162887;-16
2022/07/03 06:07:22;;;;;;;37.97;17.48;;;;;;;;;;7335114;19;154060;-16
2022/07/03 06:09:53;;;;;;;29.85;16.33;;;;;;;;;;7334059;19;153595;-16
2022/07/03 06:12:25;;;;;;;30.35;16.05;;;;;;;;;;7335819;19;161832;-16
2022/07/03 06:14:56;;;;;;;33.03;16.65;;;;;;;;;;7334903;19;162494;-17
2022/07/03 06:17:29;;;;;;;31.30;15.52;;;;;;;;;;7334936;19;154101;-16
2022/07/03 06:20:01;;;;;;;30.45;16.00;;;;;;;;;;7334386;19;153678;-16
2022/07/03 06:22:35;;;;;;;30.60;16.48;;;;;;;;;;7334541;19;162027;-15
2022/07/03 06:25:08;;;;;;;32.50;16.10;;;;;;;;;;7334047;19;162548;-15
2022/07/03 06:27:40;;;;;;;33.00;16.60;;;;;;;;;;7335493;19;154205;-16
2022/07/03 06:30:13;;;;;;;28.63;16.35;;;;;;;;;;7333293;19;153590;-16
2022/07/03 06:32:45;;;;;;;29.88;16.27;;;;;;;;;;7334741;19;161679;-16
2022/07/03 06:35:17;;;;;;;29.27;13.98;;;;;;;;;;7332083;19;162638;-16
2022/07/03 06:37:53;;;;;;;35.30;15.95;;;;;;;;;;7335087;19;154171;-16
2022/07/03 06:40:24;;;;;;;32.30;14.65;;;;;;;;;;7334989;19;153635;-16
2022/07/03 06:42:56;;;;;;;30.50;14.60;;;;;;;;;;7334022;19;161777;-16
2022/07/03 06:45:27;;;;;;;29.95;14.85;;;;;;;;;;7332076;19;162403;-16
2022/07/03 06:47:58;;;;;;;29.30;15.23;;;;;;;;;;7333931;19;154330;-16
2022/07/03 06:50:29;;;;;;;28.67;15.50;;;;;;;;;;7334228;19;153377;-16
2022/07/03 06:53:03;;;;;;;30.63;15.50;;;;;;;;;;7333723;19;161954;-15
2022/07/03 06:55:34;;;;;;;28.70;15.10;;;;;;;;;;7333962;19;162369;-16
2022/07/03 06:58:06;;;;;;;28.10;15.57;;;;;;;;;;7333135;19;154267;-16
2022/07/03 07:00:38;;;;;;;27.95;14.57;;;;;;;;;;7333755;19;153594;-15
2022/07/03 07:03:09;;;;;;;28.05;13.60;;;;;;;;;;7333911;19;161575;-16
2022/07/03 07:05:40;;;;;;;29.65;14.48;;;;;;;;;;7332961;19;162358;-16
2022/07/03 07:08:14;;;;;;;27.25;14.02;;;;;;;;;;7333904;19;154110;-17
2022/07/03 07:10:46;;;;;;;27.80;13.68;;;;;;;;;;7332346;19;153646;-15
2022/07/03 07:13:17;;;;;;;26.05;14.23;;;;;;;;;;7333136;19;161981;-16
2022/07/03 07:15:48;;;;;;;26.00;13.65;;;;;;;;;;7332788;19;162300;-16
2022/07/03 07:18:19;;;;;;;29.48;15.40;;;;;;;;;;7332390;19;154298;-17
2022/07/03 07:20:51;;;;;;;27.42;14.38;;;;;;;;;;7333491;19;153555;-16
2022/07/03 07:23:24;;;;;;;26.52;13.52;;;;;;;;;;7332945;19;161864;-15
2022/07/03 07:25:56;;;;;;;25.45;12.35;;;;;;;;;;7332675;19;162271;-16
2022/07/03 07:28:28;;;;;;;;;;;;;;;;;;7333336;19;154019;-16
2022/07/03 07:31:00;;;;;;;25.67;13.23;;;;;;;;;;7332455;19;153392;-16
2022/07/03 07:33:32;;;;;;;27.63;13.88;;;;;;;;;;7331932;19;161800;-16
2022/07/03 07:36:03;;;;;;;26.90;14.07;;;;;;;;;;7331758;19;162517;-16
2022/07/03 07:38:38;;;;;;;24.05;14.02;;;;;;;;;;7333105;19;154016;-16
2022/07/03 07:41:11;;;;;;;22.98;13.30;;;;;;;;;;7331391;19;153812;-16
2022/07/03 07:43:43;;;;;;;22.40;12.35;;;;;;;;;;7332059;19;161776;-16
2022/07/03 07:46:15;;;;;;;22.05;12.73;;;;;;;;;;7331135;19;162696;-16
2022/07/03 07:48:47;;;;;;;28.98;14.05;;;;;;;;;;7332737;19;154178;-17
2022/07/03 07:51:19;;;;;;;24.73;12.83;;;;;;;;;;7333026;19;153647;-16
2022/07/03 07:53:57;;;;;;;23.40;12.80;;;;;;;;;;7332442;19;162101;-16
2022/07/03 07:56:29;;;;;;;23.73;12.80;;;;;;;;;;7332031;19;162667;-16
2022/07/03 07:59:01;;;;;;;21.88;11.52;;;;;;;;;;7337828;19;153976;-16
2022/07/03 08:07:02;;;;;;;25.15;12.45;;;;;;;;;;7337870;19;162310;-17
2022/07/03 08:09:36;;;;;;;23.45;11.45;;;;;;;;;;7337360;19;154213;-17
2022/07/03 08:12:09;;;;;;;24.92;13.10;;;;;;;;;;7338866;19;153495;-17
2022/07/03 08:14:40;;;;;;;24.60;12.13;;;;;;;;;;7335319;19;162686;-17
2022/07/03 08:17:11;;;;;;;20.13;10.98;;;;;;;;;;7338314;19;162491;-16
2022/07/03 08:19:43;;;;;;;21.88;11.85;;;;;;;;;;7338722;19;154343;-17
2022/07/03 08:22:14;;;;;;;19.00;11.73;;;;;;;;;;7338488;19;153737;-17
2022/07/03 08:24:52;;;;;;;22.20;11.82;;;;;;;;;;7335346;19;161884;-17
2022/07/03 08:27:24;;;;;;;23.80;13.23;;;;;;;;;;7337437;19;162463;-17
2022/07/03 08:29:55;;;;;;;22.25;11.95;;;;;;;;;;7337799;19;154386;-17
2022/07/03 08:32:26;;;;;;;18.63;10.25;;;;;;;;;;7334870;19;153607;-16
2022/07/03 08:34:57;;;;;;;14.82;7.82;;;;;;;;;;7332069;19;161869;-16
2022/07/03 08:37:29;;;;;;;13.48;6.97;;;;;;;;;;7334116;19;162595;-16
2022/07/03 08:40:03;;;;;;;15.18;6.72;;;;;;;;;;7334560;19;154499;-15
2022/07/03 08:42:37;;;;;;;9.52;5.13;;;;;;;;;;7333812;19;153556;-16
2022/07/03 08:45:11;;;;;;;15.50;5.25;;;;;;;;;;7337222;19;161802;-17
2022/07/03 08:47:45;;;;;;;8.98;4.38;;;;;;;;;;7333182;19;162389;-16
2022/07/03 08:50:18;;;;;;;10.07;4.50;;;;;;;;;;7337437;19;154059;-16
2022/07/03 08:52:50;;;;;;;10.95;4.93;;;;;;;;;;7336333;19;153584;-16
2022/07/03 08:55:24;;;;;;;9.18;4.60;;;;;;;;;;7336698;19;162023;-16
2022/07/03 08:57:58;;;;;;;9.75;4.40;;;;;;;;;;7336559;19;162515;-16
2022/07/03 09:00:30;;;;;;;7.45;4.13;;;;;;;;;;7333849;19;154297;-16
2022/07/03 09:03:04;;;;;;;11.52;4.85;;;;;;;;;;7333864;19;153568;-16
2022/07/03 09:05:37;;;;;;;8.73;4.43;;;;;;;;;;7333324;19;161895;-16
2022/07/03 09:08:10;;;;;;;6.97;4.53;;;;;;;;;;7329968;19;162467;-16
2022/07/03 09:10:44;;;;;;;9.82;4.60;;;;;;;;;;7333124;19;154101;-16
2022/07/03 09:13:15;;;;;;;5.85;3.88;;;;;;;;;;7334373;19;153584;-17
2022/07/03 09:15:47;;;;;;;7.60;4.63;;;;;;;;;;7335128;19;161849;-16
2022/07/03 09:18:18;;;;;;;7.88;4.40;;;;;;;;;;7335958;19;162544;-16
2022/07/03 09:20:49;;;;;;;8.35;4.25;;;;;;;;;;7336698;19;153827;-16
2022/07/03 09:23:22;;;;;;;7.28;4.00;;;;;;;;;;7336150;19;153567;-16
2022/07/03 09:25:58;;;;;;;9.32;4.55;;;;;;;;;;7336231;19;161760;-16
2022/07/03 09:28:45;;;;;;;10.05;4.15;;;;;;;;;;7334480;19;162377;-16
2022/07/03 09:31:18;;;;;;;8.50;4.28;;;;;;;;;;7335555;19;154147;-16
2022/07/03 09:34:01;;;;;;;6.55;3.88;;;;;;;;;;7333654;19;153551;-17
2022/07/03 09:36:43;;;;;;;8.10;3.83;;;;;;;;;;7335335;19;161880;-16
2022/07/03 09:39:26;;;;;;;5.93;3.85;;;;;;;;;;7335667;19;162750;-16
2022/07/03 09:42:01;;;;;;;10.30;4.40;;;;;;;;;;7335713;19;154760;-16
2022/07/03 09:44:37;;;;;;;8.85;4.32;;;;;;;;;;7335353;19;153571;-16
2022/07/03 09:47:10;;;;;;;9.45;4.68;;;;;;;;;;7335794;19;161799;-15
2022/07/03 09:49:55;;;;;;;5.95;3.65;;;;;;;;;;7329255;19;162371;-16
2022/07/03 09:52:31;;;;;;;8.98;3.92;;;;;;;;;;7336481;19;154059;-16
2022/07/03 09:55:04;;;;;;;4.55;1.60;;;;;;;;;;7332572;19;153564;-16
2022/07/03 09:57:38;;;;;;;4.28;1.58;;;;;;;;;;7331984;19;161863;-15
2022/07/03 10:00:14;;;;;;;4.35;1.67;;;;;;;;;;7331548;19;162365;-16
2022/07/03 10:02:56;;;;;;;3.20;1.70;;;;;;;;;;7333563;19;154342;-15
2022/07/03 10:05:30;;;;;;;9.73;2.28;;;;;;;;;;7331282;19;153685;-16
2022/07/03 10:08:02;;;;;;;9.38;2.08;;;;;;;;;;7334944;19;161969;-16
2022/07/03 10:10:35;;;;;;;9.05;2.08;;;;;;;;;;7331735;19;162583;-16
2022/07/03 10:13:09;;;;;;;;;;;;;;;;;;7331946;19;154200;-16
2022/07/03 10:15:41;;;;;;;5.43;1.85;;;;;;;;;;7331832;19;153481;-15
2022/07/03 10:18:13;;;;;;;;;;;;;;;;;;7330990;19;161975;-15
2022/07/03 10:20:49;;;;;;;3.78;1.52;;;;;;;;;;7329305;19;162825;-16
2022/07/03 10:23:24;;;;;;;5.63;1.60;;;;;;;;;;7331534;19;154239;-16
2022/07/03 10:25:56;;;;;;;4.95;1.77;;;;;;;;;;7334642;19;153474;-16
2022/07/03 10:28:33;;;;;;;4.90;1.73;;;;;;;;;;7330509;19;161843;-16
2022/07/03 10:31:04;;;;;;;6.05;1.63;;;;;;;;;;7331192;19;162422;-16
2022/07/03 10:33:37;;;;;;;5.65;1.83;;;;;;;;;;7330410;19;153964;-16
2022/07/03 10:59:02;;;;;;;4.47;2.00;;;;;;;;;;7161106;19;137102;-13
2022/07/03 11:01:49;;;;;;;3.83;1.70;;;;;;;;;;7264893;19;154310;31
2022/07/03 11:04:20;;;;;;;4.40;1.77;;;;;;;;;;7273976;19;162629;-13
2022/07/03 11:07:16;;;;;;;7.32;1.80;;;;;;;;;;7273678;19;165027;-15
2022/07/03 11:09:47;;;;;;;2.65;1.73;;;;;;;;;;7078054;19;3130033;-15
2022/07/03 11:12:18;;;;;;;8.02;2.25;;;;;;;;;;7255859;19;154662;-15
2022/07/03 11:15:27;;;;;;;8.05;2.17;;;;;;;;;;7217388;19;160373;-16
2022/07/03 11:18:27;;;;;;;5.50;2.10;;;;;;;;;;7194205;19;163036;31
2022/07/03 11:21:31;;;;;;;4.95;2.08;;;;;;;;;;7310495;19;154873;-15
2022/07/03 11:24:15;;;;;;;;;;;;;;;;;;7311275;19;153973;-14
2022/07/03 11:26:46;;;;;;;6.60;1.63;;;;;;;;;;7310526;19;162856;-15
2022/07/03 11:29:31;;;;;;;5.70;1.63;;;;;;;;;;7306463;19;163384;-15
2022/07/03 11:32:42;;;;;;;2.88;1.35;;;;;;;;;;7310282;19;154479;-15
2022/07/03 11:35:42;;;;;;;5.05;1.85;;;;;;;;;;7310586;19;153955;-15
2022/07/03 11:38:14;;;;;;;5.03;1.77;;;;;;;;;;7310793;19;162412;-14
2022/07/03 11:40:47;;;;;;;2.38;1.77;;;;;;;;;;7309091;19;163467;-15
2022/07/03 11:43:18;;;;;;;4.85;1.63;;;;;;;;;;7310920;19;154956;-15
2022/07/03 11:45:50;;;;;;;3.78;1.83;;;;;;;;;;7311225;19;154064;-15
2022/07/03 11:48:26;;;;;;;4.03;1.60;;;;;;;;;;7310975;19;162200;-14
2022/07/03 11:51:03;;;;;;;5.63;2.05;;;;;;;;;;7307259;19;162923;-15
2022/07/03 11:53:35;;;;;;;4.38;1.80;;;;;;;;;;7306878;19;154536;-15
2022/07/03 11:56:08;;;;;;;6.20;2.03;;;;;;;;;;7303880;19;154014;-15
2022/07/03 11:58:47;;;;;;;6.25;2.03;;;;;;;;;;7310565;19;162164;-15
2022/07/03 12:01:34;;;;;;;4.57;1.52;;;;;;;;;;7309444;19;162859;-15
2022/07/03 12:04:09;;;;;;;4.45;1.92;;;;;;;;;;7309938;19;154577;-14
2022/07/03 12:06:43;;;;;;;7.68;2.20;;;;;;;;;;7310030;19;154480;-15
2022/07/03 12:09:19;;;;;;;3.55;1.70;;;;;;;;;;7309147;19;162206;-15
2022/07/03 12:11:59;;;;;;;4.07;1.70;;;;;;;;;;7310019;19;162968;-14
2022/07/03 12:14:44;;;;;;;4.35;1.60;;;;;;;;;;7308847;19;154697;-14
2022/07/03 12:17:18;;;;;;;3.83;1.52;;;;;;;;;;7308642;19;154423;-14
2022/07/03 12:19:54;;;;;;;4.03;1.67;;;;;;;;;;7307414;19;162726;-14
2022/07/03 12:22:27;;;;;;;3.90;1.90;;;;;;;;;;7309775;19;162795;-14
2022/07/03 12:25:01;;;;;;;3.80;1.73;;;;;;;;;;7309509;19;154601;-14
2022/07/03 12:27:35;;;;;;;3.78;1.85;;;;;;;;;;7309870;19;154372;-14
2022/07/03 12:30:09;;;;;;;4.22;1.33;;;;;;;;;;7307707;19;163034;-14
2022/07/03 12:32:41;;;;;;;6.93;1.75;;;;;;;;;;7308454;19;163238;-14
2022/07/03 12:35:15;;;;;;;3.92;1.55;;;;;;;;;;7309251;19;154465;-15
2022/07/03 12:37:47;;;;;;;3.75;1.42;;;;;;;;;;7309664;19;153873;-14
2022/07/03 12:40:18;;;;;;;4.25;1.45;;;;;;;;;;7309285;19;162290;-14
2022/07/03 12:42:51;;;;;;;8.50;1.92;;;;;;;;;;7308844;19;162850;-15
2022/07/03 12:45:23;;;;;;;4.95;1.90;;;;;;;;;;7315689;19;154567;-15
2022/07/03 12:48:01;;;;;;;2.97;1.65;;;;;;;;;;7315418;19;154081;-15
2022/07/03 12:50:52;;;;;;;3.13;1.15;;;;;;;;;;7310220;19;162528;-15
2022/07/03 12:53:30;;;;;;;5.57;1.60;;;;;;;;;;7313231;19;163217;-14
2022/07/03 12:56:03;;;;;;;5.72;1.60;;;;;;;;;;7315887;19;154908;-15
2022/07/03 13:01:27;;;;;;;3.60;1.25;;;;;;;;;;7309623;19;162690;-14
2022/07/03 13:03:59;;;;;;;3.20;1.50;;;;;;;;;;7312186;19;163422;-14
2022/07/03 13:06:33;;;;;;;5.23;1.50;;;;;;;;;;7315390;19;154641;-15
2022/07/03 13:09:07;;;;;;;5.85;1.30;;;;;;;;;;7314539;19;153944;-14
2022/07/03 13:11:39;;;;;;;4.93;1.30;;;;;;;;;;7312622;19;162301;-14
2022/07/03 13:14:13;;;;;;;42.38;14.60;;;;;;;;;;7314991;19;162784;-14
2022/07/03 13:16:47;;;;;;;214.45;84.97;;;;;;;;;;7314827;19;154474;-15
2022/07/03 13:19:19;;;;;;;17.45;7.28;;;;;;;;;;7313655;19;154120;-15
2022/07/03 13:21:54;;;;;;;;;;;;;;;;;;7315318;19;162350;-15
2022/07/03 13:24:26;;;;;;;56.20;21.75;;;;;;;;;;7314704;19;162989;-15
2022/07/03 13:26:58;;;;;;;57.50;22.23;;;;;;;;;;7314688;19;154561;-15
2022/07/03 13:29:29;;;;;;;58.53;21.40;;;;;;;;;;7313085;19;154099;-14
2022/07/03 13:32:01;;;;;;;61.35;22.40;;;;;;;;;;7311791;19;162660;-15
2022/07/03 13:34:32;;;;;;;62.05;24.10;;;;;;;;;;7314007;19;162815;-15
2022/07/03 13:37:06;;;;;;;58.25;20.98;;;;;;;;;;7312816;19;154461;-15
2022/07/03 13:39:37;;;;;;;61.25;22.17;;;;;;;;;;7314607;19;153705;-15
2022/07/03 13:42:10;;;;;;;53.97;23.73;;;;;;;;;;7313630;19;162407;-14
2022/07/03 13:44:41;;;;;;;57.03;22.33;;;;;;;;;;7313606;19;162881;-15
2022/07/03 13:47:13;;;;;;;65.90;25.05;;;;;;;;;;7314559;19;154574;-15
2022/07/03 13:49:44;;;;;;;55.78;22.48;;;;;;;;;;7314094;19;154886;-15
2022/07/03 13:52:18;;;;;;;58.47;22.10;;;;;;;;;;7310380;19;162188;-15
2022/07/03 13:54:49;;;;;;;60.38;22.77;;;;;;;;;;7311291;19;162745;-14
2022/07/03 13:57:21;;;;;;;55.83;21.60;;;;;;;;;;7315359;19;154523;-14
2022/07/03 13:59:52;;;;;;;55.85;21.88;;;;;;;;;;7312144;19;154472;-15
2022/07/03 14:02:23;;;;;;;57.80;23.40;;;;;;;;;;7313058;19;162892;-14
2022/07/03 14:04:54;;;;;;;52.38;22.13;;;;;;;;;;7314604;19;162889;-14
2022/07/03 14:07:31;;;;;;;56.30;23.08;;;;;;;;;;7313054;19;154797;-14
2022/07/03 14:10:03;;;;;;;57.05;21.08;;;;;;;;;;7313642;19;154672;-14
2022/07/03 14:12:34;;;;;;;54.25;21.35;;;;;;;;;;7312153;19;162284;-14
2022/07/03 14:15:06;;;;;;;54.67;21.98;;;;;;;;;;7312238;19;163418;-14
2022/07/03 14:17:37;;;;;;;51.95;21.13;;;;;;;;;;7312065;19;154810;-14
2022/07/03 14:20:10;;;;;;;60.00;22.75;;;;;;;;;;7309309;19;154155;-14
2022/07/03 14:22:43;;;;;;;53.08;21.33;;;;;;;;;;7312269;19;162150;-14
2022/07/03 14:25:18;;;;;;;59.10;22.80;;;;;;;;;;7313860;19;162810;-14
2022/07/03 14:33:16;;;;;;;61.28;21.45;;;;;;;;;;7309886;19;161818;-14
2022/07/03 14:35:47;;;;;;;46.60;20.15;;;;;;;;;;7310760;19;163184;-14
2022/07/03 14:38:22;;;;;;;54.17;20.17;;;;;;;;;;7310466;19;154488;-14
2022/07/03 14:40:54;;;;;;;48.88;19.30;;;;;;;;;;7313032;19;154639;-14
2022/07/03 14:43:25;;;;;;;49.97;20.33;;;;;;;;;;7311398;19;162533;-14
2022/07/03 14:45:57;;;;;;;47.58;20.42;;;;;;;;;;7313048;19;165666;-14
2022/07/03 14:48:28;;;;;;;49.42;19.42;;;;;;;;;;7312111;19;154773;-14
2022/07/03 14:51:00;;;;;;;47.50;19.92;;;;;;;;;;7309814;19;154629;-14
2022/07/03 14:53:34;;;;;;;46.95;19.92;;;;;;;;;;7311720;19;162327;-14
2022/07/03 14:56:05;;;;;;;47.40;19.65;;;;;;;;;;7311806;19;162827;-14
2022/07/03 14:58:36;;;;;;;49.58;19.30;;;;;;;;;;7312340;19;154460;-14
2022/07/03 15:01:10;;;;;;;52.00;19.85;;;;;;;;;;7313433;19;154398;-14
2022/07/03 15:03:51;;;;;;;42.42;18.77;;;;;;;;;;7311093;19;162179;-14
2022/07/03 15:06:23;;;;;;;48.08;19.70;;;;;;;;;;7309796;19;162282;-14
2022/07/03 15:09:05;;;;;;;47.70;18.02;;;;;;;;;;7309554;19;154448;-14
2022/07/03 15:14:27;;;;;;;45.75;18.38;;;;;;;;;;7311599;19;162256;-14
2022/07/03 15:17:02;;;;;;;50.10;18.63;;;;;;;;;;7310987;19;163149;-14
2022/07/03 15:19:35;;;;;;;41.85;18.00;;;;;;;;;;7310145;19;154356;-14
2022/07/03 15:22:07;;;;;;;40.90;15.73;;;;;;;;;;7311384;19;154060;-14
2022/07/03 15:24:43;;;;;;;42.77;16.33;;;;;;;;;;7311131;19;162772;-14
2022/07/03 15:27:16;;;;;;;19.80;6.25;;;;;;;;;;7310214;19;162771;-14
2022/07/03 15:29:48;;;;;;;16.20;5.57;;;;;;;;;;7308197;19;155411;-18
2022/07/03 15:32:19;;;;;;;17.52;6.45;;;;;;;;;;7309915;19;153969;-14
2022/07/03 15:34:51;;;;;;;18.63;6.37;;;;;;;;;;7310181;19;162765;-14
2022/07/03 15:37:44;;;;;;;19.58;7.57;;;;;;;;;;7311185;19;162806;-14
2022/07/03 15:40:25;;;;;;;21.45;6.63;;;;;;;;;;7311671;19;154375;-14